createdAt,value
2023-05-04T00:00:12.927Z,81.92
2023-05-04T00:01:12.916Z,81.51
2023-05-04T00:02:13.014Z,82.19
2023-05-04T00:03:12.962Z,81.98
2023-05-04T00:04:13.053Z,82.02
2023-05-04T00:05:12.982Z,82.12
2023-05-04T00:06:12.902Z,82.19
2023-05-04T00:07:12.895Z,81.92
2023-05-04T00:08:12.864Z,82.23
2023-05-04T00:09:12.880Z,82.33
2023-05-04T00:10:12.876Z,83.40
2023-05-04T00:11:12.940Z,82.54
2023-05-04T00:12:12.862Z,82.57
2023-05-04T00:13:12.916Z,82.57
2023-05-04T00:14:12.826Z,83.09
2023-05-04T00:15:12.828Z,83.09
2023-05-04T00:16:12.845Z,83.91
2023-05-04T00:17:12.875Z,83.61
2023-05-04T00:18:12.808Z,83.50
2023-05-04T00:19:12.808Z,83.71
2023-05-04T00:20:12.809Z,84.12
2023-05-04T00:21:12.789Z,83.50
2023-05-04T00:22:12.755Z,83.50
2023-05-04T00:23:12.842Z,83.61
2023-05-04T00:24:12.773Z,82.89
2023-05-04T00:25:12.796Z,82.98
2023-05-04T00:26:12.765Z,83.19
2023-05-04T00:27:12.743Z,83.50
2023-05-04T00:28:12.737Z,83.50
2023-05-04T00:29:12.760Z,83.40
2023-05-04T00:30:12.763Z,84.06
2023-05-04T00:31:12.737Z,83.50
2023-05-04T00:32:12.724Z,83.75
2023-05-04T00:33:12.770Z,83.64
2023-05-04T00:34:12.694Z,83.95
2023-05-04T00:35:12.736Z,83.95
2023-05-04T00:36:12.694Z,83.54
2023-05-04T00:37:12.670Z,83.54
2023-05-04T00:38:12.670Z,83.64
2023-05-04T00:39:12.672Z,83.95
2023-05-04T00:40:12.662Z,83.75
2023-05-04T00:41:12.689Z,83.54
2023-05-04T00:42:12.649Z,84.36
2023-05-04T00:43:12.646Z,84.06
2023-05-04T00:44:12.634Z,84.20
2023-05-04T00:45:12.643Z,84.81
2023-05-04T00:46:12.634Z,84.81
2023-05-04T00:47:12.669Z,84.20
2023-05-04T00:48:12.663Z,84.81
2023-05-04T00:49:12.595Z,84.72
2023-05-04T00:50:12.592Z,84.30
2023-05-04T00:51:12.587Z,84.30
2023-05-04T00:52:12.590Z,84.41
2023-05-04T00:53:12.639Z,83.64
2023-05-04T00:54:12.576Z,83.44
2023-05-04T00:55:12.557Z,83.58
2023-05-04T00:56:12.551Z,82.92
2023-05-04T00:57:12.548Z,82.71
2023-05-04T00:58:12.529Z,83.37
2023-05-04T00:59:12.949Z,83.75
2023-05-04T01:00:12.514Z,83.23
2023-05-04T01:01:12.570Z,83.89
2023-05-04T01:02:12.510Z,84.30
2023-05-04T01:03:12.615Z,84.30
2023-05-04T01:04:12.609Z,83.99
2023-05-04T01:05:12.565Z,84.41
2023-05-04T01:06:12.494Z,85.58
2023-05-04T01:07:12.471Z,85.33
2023-05-04T01:08:12.454Z,85.68
2023-05-04T01:09:12.457Z,85.27
2023-05-04T01:10:12.428Z,84.96
2023-05-04T01:11:12.491Z,85.78
2023-05-04T01:12:12.446Z,85.58
2023-05-04T01:13:12.509Z,85.89
2023-05-04T01:14:12.417Z,85.37
2023-05-04T01:15:12.404Z,85.52
2023-05-04T01:16:12.420Z,85.27
2023-05-04T01:17:12.590Z,85.72
2023-05-04T01:18:12.419Z,85.62
2023-05-04T01:19:12.379Z,86.34
2023-05-04T01:20:12.396Z,86.03
2023-05-04T01:21:12.371Z,86.34
2023-05-04T01:22:12.352Z,86.65
2023-05-04T01:23:12.429Z,86.34
2023-05-04T01:24:12.364Z,86.65
2023-05-04T01:25:12.332Z,86.55
2023-05-04T01:26:12.323Z,86.76
2023-05-04T01:27:12.314Z,86.65
2023-05-04T01:28:12.300Z,87.37
2023-05-04T01:29:12.352Z,86.96
2023-05-04T01:30:12.293Z,86.24
2023-05-04T01:31:12.341Z,86.65
2023-05-04T01:32:12.277Z,86.34
2023-05-04T01:33:12.371Z,86.34
2023-05-04T01:34:12.286Z,86.44
2023-05-04T01:35:12.301Z,86.44
2023-05-04T01:36:12.256Z,86.34
2023-05-04T01:37:12.261Z,86.76
2023-05-04T01:38:12.242Z,87.21
2023-05-04T01:39:12.233Z,87.10
2023-05-04T01:40:12.226Z,87.21
2023-05-04T01:41:12.249Z,87.58
2023-05-04T01:42:12.228Z,87.00
2023-05-04T01:43:12.197Z,87.31
2023-05-04T01:44:12.180Z,87.00
2023-05-04T01:45:12.184Z,87.21
2023-05-04T01:46:12.230Z,87.31
2023-05-04T01:47:12.212Z,87.73
2023-05-04T01:48:12.156Z,87.73
2023-05-04T01:49:12.153Z,88.07
2023-05-04T01:50:12.169Z,87.97
2023-05-04T01:51:12.155Z,87.97
2023-05-04T01:52:12.136Z,88.18
2023-05-04T01:53:12.169Z,87.97
2023-05-04T01:54:12.141Z,87.62
2023-05-04T01:55:12.117Z,88.07
2023-05-04T01:56:12.105Z,88.07
2023-05-04T01:57:12.088Z,88.07
2023-05-04T01:58:12.129Z,87.66
2023-05-04T01:59:12.146Z,87.66
2023-05-04T02:00:12.062Z,87.76
2023-05-04T02:01:12.112Z,87.04
2023-05-04T02:02:12.045Z,86.94
2023-05-04T02:03:12.136Z,87.52
2023-05-04T02:04:12.086Z,87.46
2023-05-04T02:05:12.509Z,87.15
2023-05-04T02:06:12.034Z,87.35
2023-05-04T02:07:12.041Z,87.66
2023-05-04T02:08:12.015Z,87.66
2023-05-04T02:09:12.015Z,87.46
2023-05-04T02:10:12.015Z,87.35
2023-05-04T02:11:12.036Z,87.66
2023-05-04T02:12:11.988Z,87.76
2023-05-04T02:13:12.148Z,87.76
2023-05-04T02:14:11.972Z,88.07
2023-05-04T02:15:11.967Z,88.22
2023-05-04T02:16:11.990Z,88.18
2023-05-04T02:17:12.028Z,88.39
2023-05-04T02:18:12.183Z,88.43
2023-05-04T02:19:11.942Z,88.22
2023-05-04T02:20:11.951Z,88.74
2023-05-04T02:21:11.940Z,88.64
2023-05-04T02:22:11.913Z,88.74
2023-05-04T02:23:11.945Z,87.91
2023-05-04T02:24:11.906Z,88.22
2023-05-04T02:25:11.889Z,88.22
2023-05-04T02:26:11.887Z,88.94
2023-05-04T02:27:11.876Z,89.46
2023-05-04T02:28:11.892Z,89.04
2023-05-04T02:29:11.955Z,89.25
2023-05-04T02:30:11.879Z,89.46
2023-05-04T02:31:11.921Z,89.29
2023-05-04T02:32:11.862Z,89.09
2023-05-04T02:33:11.860Z,89.19
2023-05-04T02:34:11.823Z,89.09
2023-05-04T02:35:11.883Z,89.71
2023-05-04T02:36:11.821Z,90.08
2023-05-04T02:37:11.813Z,89.29
2023-05-04T02:38:11.800Z,88.98
2023-05-04T02:39:11.831Z,89.81
2023-05-04T02:40:11.790Z,89.71
2023-05-04T02:41:11.830Z,89.77
2023-05-04T02:42:11.776Z,89.61
2023-05-04T02:43:11.778Z,89.19
2023-05-04T02:44:11.744Z,89.61
2023-05-04T02:45:11.772Z,89.50
2023-05-04T02:46:11.852Z,89.92
2023-05-04T02:47:11.778Z,88.98
2023-05-04T02:48:11.746Z,89.09
2023-05-04T02:49:11.739Z,89.61
2023-05-04T02:50:11.753Z,89.81
2023-05-04T02:51:11.695Z,90.12
2023-05-04T02:52:11.713Z,89.09
2023-05-04T02:53:11.766Z,88.98
2023-05-04T02:54:11.690Z,88.98
2023-05-04T02:55:11.682Z,90.02
2023-05-04T02:56:11.677Z,88.67
2023-05-04T02:57:11.672Z,89.81
2023-05-04T02:58:11.660Z,89.92
2023-05-04T02:59:11.696Z,90.12
2023-05-04T03:00:11.654Z,89.92
2023-05-04T03:01:11.694Z,89.61
2023-05-04T03:02:11.628Z,89.50
2023-05-04T03:03:11.620Z,89.92
2023-05-04T03:04:11.658Z,89.61
2023-05-04T03:05:11.673Z,89.81
2023-05-04T03:06:11.608Z,89.71
2023-05-04T03:07:11.594Z,89.50
2023-05-04T03:08:11.602Z,89.50
2023-05-04T03:09:11.577Z,89.71
2023-05-04T03:10:11.578Z,89.71
2023-05-04T03:11:12.091Z,89.19
2023-05-04T03:12:11.588Z,89.81
2023-05-04T03:13:11.669Z,89.61
2023-05-04T03:14:11.576Z,89.81
2023-05-04T03:15:11.543Z,89.71
2023-05-04T03:16:11.537Z,89.50
2023-05-04T03:17:11.560Z,89.03
2023-05-04T03:18:11.572Z,89.40
2023-05-04T03:19:11.537Z,89.19
2023-05-04T03:20:11.504Z,89.54
2023-05-04T03:21:11.505Z,89.34
2023-05-04T03:22:11.481Z,89.23
2023-05-04T03:23:11.540Z,89.50
2023-05-04T03:24:11.482Z,89.23
2023-05-04T03:25:11.489Z,89.13
2023-05-04T03:26:11.483Z,89.96
2023-05-04T03:27:11.468Z,89.65
2023-05-04T03:28:11.438Z,89.65
2023-05-04T03:29:11.517Z,89.86
2023-05-04T03:30:11.418Z,89.23
2023-05-04T03:31:11.433Z,89.75
2023-05-04T03:32:11.471Z,89.86
2023-05-04T03:33:11.547Z,89.34
2023-05-04T03:34:11.430Z,89.81
2023-05-04T03:35:11.430Z,89.81
2023-05-04T03:36:11.408Z,89.50
2023-05-04T03:37:11.406Z,89.81
2023-05-04T03:38:11.386Z,89.19
2023-05-04T03:39:11.361Z,88.98
2023-05-04T03:40:11.364Z,89.40
2023-05-04T03:41:11.413Z,89.81
2023-05-04T03:42:11.332Z,89.61
2023-05-04T03:43:11.339Z,89.71
2023-05-04T03:44:11.326Z,89.19
2023-05-04T03:45:11.330Z,89.19
2023-05-04T03:46:11.398Z,89.71
2023-05-04T03:47:11.355Z,90.02
2023-05-04T03:48:11.381Z,89.71
2023-05-04T03:49:11.293Z,89.71
2023-05-04T03:50:11.298Z,89.81
2023-05-04T03:51:11.305Z,89.81
2023-05-04T03:52:11.329Z,89.92
2023-05-04T03:53:11.328Z,89.71
2023-05-04T03:54:11.250Z,89.50
2023-05-04T03:55:11.250Z,89.71
2023-05-04T03:56:11.250Z,89.40
2023-05-04T03:57:11.254Z,89.92
2023-05-04T03:58:11.234Z,89.50
2023-05-04T03:59:11.267Z,89.29
2023-05-04T04:00:11.224Z,89.09
2023-05-04T04:01:11.221Z,88.98
2023-05-04T04:02:11.241Z,89.19
2023-05-04T04:03:11.358Z,89.19
2023-05-04T04:04:11.185Z,89.61
2023-05-04T04:05:11.219Z,89.87
2023-05-04T04:06:11.177Z,89.09
2023-05-04T04:07:11.170Z,89.19
2023-05-04T04:08:11.247Z,89.19
2023-05-04T04:09:11.149Z,89.19
2023-05-04T04:10:11.152Z,88.06
2023-05-04T04:11:11.546Z,88.46
2023-05-04T04:12:11.144Z,88.26
2023-05-04T04:13:11.171Z,88.16
2023-05-04T04:14:11.149Z,88.46
2023-05-04T04:15:11.115Z,88.46
2023-05-04T04:16:11.120Z,89.50
2023-05-04T04:17:11.142Z,89.19
2023-05-04T04:18:11.090Z,89.61
2023-05-04T04:19:11.073Z,89.50
2023-05-04T04:20:11.070Z,88.94
2023-05-04T04:21:11.086Z,88.98
2023-05-04T04:22:11.055Z,88.53
2023-05-04T04:23:11.097Z,88.64
2023-05-04T04:24:11.058Z,87.81
2023-05-04T04:25:11.079Z,88.12
2023-05-04T04:26:11.040Z,87.70
2023-05-04T04:27:11.030Z,87.29
2023-05-04T04:28:11.035Z,87.60
2023-05-04T04:29:11.040Z,87.56
2023-05-04T04:30:11.014Z,87.66
2023-05-04T04:31:11.012Z,87.46
2023-05-04T04:32:10.969Z,87.25
2023-05-04T04:33:11.017Z,87.56
2023-05-04T04:34:10.975Z,87.25
2023-05-04T04:35:11.006Z,87.35
2023-05-04T04:36:10.964Z,86.83
2023-05-04T04:37:10.951Z,86.42
2023-05-04T04:38:10.958Z,86.63
2023-05-04T04:39:11.001Z,86.52
2023-05-04T04:40:10.962Z,86.49
2023-05-04T04:41:11.002Z,86.59
2023-05-04T04:42:10.940Z,87.31
2023-05-04T04:43:10.904Z,86.65
2023-05-04T04:44:10.914Z,84.89
2023-05-04T04:45:10.885Z,85.45
2023-05-04T04:46:10.905Z,83.97
2023-05-04T04:47:10.920Z,84.38
2023-05-04T04:48:11.001Z,85.04
2023-05-04T04:49:10.854Z,84.17
2023-05-04T04:50:10.853Z,85.21
2023-05-04T04:51:10.830Z,84.07
2023-05-04T04:52:12.210Z,84.38
2023-05-04T04:53:10.871Z,84.11
2023-05-04T04:54:10.816Z,83.97
2023-05-04T04:55:10.811Z,83.86
2023-05-04T04:56:10.825Z,83.97
2023-05-04T04:57:10.805Z,83.86
2023-05-04T04:58:10.809Z,83.04
2023-05-04T04:59:10.837Z,83.97
2023-05-04T05:00:10.797Z,83.25
2023-05-04T05:01:10.791Z,83.31
2023-05-04T05:02:10.783Z,83.14
2023-05-04T05:03:10.810Z,83.72
2023-05-04T05:04:10.802Z,83.51
2023-05-04T05:05:10.811Z,83.83
2023-05-04T05:06:10.729Z,82.96
2023-05-04T05:07:10.761Z,83.99
2023-05-04T05:08:10.710Z,82.65
2023-05-04T05:09:10.711Z,82.24
2023-05-04T05:10:10.712Z,83.23
2023-05-04T05:11:10.752Z,82.14
2023-05-04T05:12:10.711Z,81.58
2023-05-04T05:13:10.721Z,82.20
2023-05-04T05:14:10.685Z,82.10
2023-05-04T05:15:10.702Z,81.99
2023-05-04T05:16:10.735Z,82.57
2023-05-04T05:17:10.879Z,82.71
2023-05-04T05:18:10.711Z,81.17
2023-05-04T05:19:10.663Z,81.85
2023-05-04T05:20:10.664Z,82.89
2023-05-04T05:21:10.618Z,81.96
2023-05-04T05:22:10.607Z,81.44
2023-05-04T05:23:10.660Z,81.54
2023-05-04T05:24:10.630Z,81.51
2023-05-04T05:25:10.603Z,81.61
2023-05-04T05:26:10.591Z,81.20
2023-05-04T05:27:10.584Z,81.81
2023-05-04T05:28:10.585Z,81.40
2023-05-04T05:29:10.626Z,80.27
2023-05-04T05:30:10.564Z,80.23
2023-05-04T05:31:10.636Z,81.26
2023-05-04T05:32:10.541Z,80.44
2023-05-04T05:33:10.623Z,78.79
2023-05-04T05:34:10.521Z,79.72
2023-05-04T05:35:10.597Z,79.82
2023-05-04T05:36:10.540Z,79.10
2023-05-04T05:37:10.526Z,79.00
2023-05-04T05:38:10.523Z,78.69
2023-05-04T05:39:10.530Z,79.51
2023-05-04T05:40:10.516Z,79.51
2023-05-04T05:41:10.550Z,78.69
2023-05-04T05:42:10.460Z,79.61
2023-05-04T05:43:10.473Z,78.96
2023-05-04T05:44:12.875Z,79.00
2023-05-04T05:45:10.479Z,78.75
2023-05-04T05:46:10.499Z,79.68
2023-05-04T05:47:10.553Z,79.03
2023-05-04T05:48:10.451Z,78.92
2023-05-04T05:49:10.424Z,78.10
2023-05-04T05:50:10.438Z,78.20
2023-05-04T05:51:10.400Z,77.69
2023-05-04T05:52:10.405Z,77.86
2023-05-04T05:53:10.494Z,77.38
2023-05-04T05:54:10.387Z,77.45
2023-05-04T05:55:10.439Z,77.24
2023-05-04T05:56:10.406Z,78.27
2023-05-04T05:57:10.376Z,77.65
2023-05-04T05:58:10.369Z,77.65
2023-05-04T05:59:10.408Z,77.03
2023-05-04T06:00:10.361Z,77.75
2023-05-04T06:01:10.399Z,77.55
2023-05-04T06:02:10.408Z,76.93
2023-05-04T06:03:10.408Z,77.75
2023-05-04T06:04:10.528Z,76.83
2023-05-04T06:05:10.346Z,77.31
2023-05-04T06:06:10.291Z,77.45
2023-05-04T06:07:10.322Z,76.69
2023-05-04T06:08:10.298Z,77.51
2023-05-04T06:09:10.293Z,76.59
2023-05-04T06:10:10.305Z,77.41
2023-05-04T06:11:10.320Z,76.90
2023-05-04T06:12:10.286Z,77.78
2023-05-04T06:13:10.311Z,76.65
2023-05-04T06:14:10.232Z,76.72
2023-05-04T06:15:10.246Z,77.03
2023-05-04T06:16:10.271Z,76.62
2023-05-04T06:17:10.554Z,75.59
2023-05-04T06:18:10.306Z,76.07
2023-05-04T06:19:10.204Z,75.66
2023-05-04T06:20:10.213Z,75.15
2023-05-04T06:21:10.186Z,75.32
2023-05-04T06:22:10.193Z,74.60
2023-05-04T06:23:10.234Z,75.01
2023-05-04T06:24:10.196Z,74.15
2023-05-04T06:25:10.176Z,73.44
2023-05-04T06:26:10.162Z,73.54
2023-05-04T06:27:10.152Z,73.95
2023-05-04T06:28:10.150Z,72.20
2023-05-04T06:29:10.163Z,72.48
2023-05-04T06:30:10.130Z,73.10
2023-05-04T06:31:10.211Z,73.40
2023-05-04T06:32:10.162Z,73.50
2023-05-04T06:33:10.139Z,72.48
2023-05-04T06:34:10.108Z,71.73
2023-05-04T06:35:10.180Z,72.14
2023-05-04T06:36:10.072Z,72.34
2023-05-04T06:37:10.067Z,71.73
2023-05-04T06:38:10.072Z,71.83
2023-05-04T06:39:10.089Z,71.42
2023-05-04T06:40:10.192Z,70.81
2023-05-04T06:41:10.089Z,71.01
2023-05-04T06:42:10.044Z,71.01
2023-05-04T06:43:10.028Z,71.01
2023-05-04T06:44:10.026Z,71.01
2023-05-04T06:45:10.036Z,71.62
2023-05-04T06:46:10.043Z,72.20
2023-05-04T06:47:10.052Z,71.18
2023-05-04T06:48:10.056Z,70.47
2023-05-04T06:49:09.997Z,70.09
2023-05-04T06:50:10.010Z,69.95
2023-05-04T06:51:09.973Z,69.75
2023-05-04T06:52:10.023Z,69.98
2023-05-04T06:53:10.008Z,69.68
2023-05-04T06:54:09.963Z,70.09
2023-05-04T06:55:09.959Z,70.36
2023-05-04T06:56:09.942Z,70.16
2023-05-04T06:57:09.920Z,69.34
2023-05-04T06:58:09.919Z,68.83
2023-05-04T06:59:10.007Z,70.12
2023-05-04T07:00:09.913Z,67.46
2023-05-04T07:01:09.964Z,68.52
2023-05-04T07:02:09.915Z,67.87
2023-05-04T07:03:09.952Z,68.08
2023-05-04T07:04:10.000Z,67.74
2023-05-04T07:05:09.922Z,68.05
2023-05-04T07:06:09.880Z,67.81
2023-05-04T07:07:09.871Z,67.81
2023-05-04T07:08:09.855Z,66.66
2023-05-04T07:09:09.857Z,66.14
2023-05-04T07:10:09.830Z,66.04
2023-05-04T07:11:09.891Z,65.36
2023-05-04T07:12:09.820Z,66.61
2023-05-04T07:13:09.917Z,67.40
2023-05-04T07:14:10.528Z,66.48
2023-05-04T07:15:09.784Z,66.17
2023-05-04T07:16:09.852Z,67.16
2023-05-04T07:17:09.848Z,67.07
2023-05-04T07:18:09.807Z,67.44
2023-05-04T07:19:09.751Z,64.65
2023-05-04T07:20:09.781Z,64.34
2023-05-04T07:21:25.955Z,64.58
2023-05-04T07:22:11.023Z,64.45
2023-05-04T07:23:09.721Z,64.65
2023-05-04T07:24:09.721Z,64.01
2023-05-04T07:25:09.734Z,64.31
2023-05-04T07:26:09.725Z,64.59
2023-05-04T07:27:09.698Z,63.47
2023-05-04T07:28:09.720Z,63.26
2023-05-04T07:29:09.748Z,63.37
2023-05-04T07:30:09.676Z,63.67
2023-05-04T07:31:09.678Z,62.65
2023-05-04T07:32:09.699Z,63.49
2023-05-04T07:33:09.734Z,64.11
2023-05-04T07:34:09.690Z,64.42
2023-05-04T07:35:09.650Z,64.22
2023-05-04T07:36:09.681Z,63.19
2023-05-04T07:37:09.652Z,62.24
2023-05-04T07:38:09.616Z,62.55
2023-05-04T07:39:09.609Z,63.06
2023-05-04T07:40:09.646Z,62.76
2023-05-04T07:41:09.587Z,63.57
2023-05-04T07:42:09.580Z,64.49
2023-05-04T07:43:09.582Z,62.82
2023-05-04T07:44:09.581Z,62.93
2023-05-04T07:45:09.546Z,62.70
2023-05-04T07:46:09.627Z,62.39
2023-05-04T07:47:09.584Z,63.51
2023-05-04T07:48:09.572Z,62.08
2023-05-04T07:49:09.537Z,62.56
2023-05-04T07:50:09.542Z,61.11
2023-05-04T07:51:09.523Z,61.38
2023-05-04T07:52:09.559Z,60.80
2023-05-04T07:53:09.538Z,61.72
2023-05-04T07:54:09.514Z,61.21
2023-05-04T07:55:09.502Z,61.90
2023-05-04T07:56:09.489Z,61.15
2023-05-04T07:57:09.467Z,61.25
2023-05-04T07:58:09.539Z,60.14
2023-05-04T07:59:09.469Z,60.11
2023-05-04T08:00:09.452Z,59.98
2023-05-04T08:01:09.441Z,59.06
2023-05-04T08:02:09.511Z,58.76
2023-05-04T08:03:09.467Z,59.64
2023-05-04T08:04:09.541Z,58.60
2023-05-04T08:05:09.417Z,58.67
2023-05-04T08:06:09.419Z,57.73
2023-05-04T08:07:09.423Z,57.20
2023-05-04T08:08:09.402Z,56.09
2023-05-04T08:09:09.410Z,55.63
2023-05-04T08:10:09.411Z,55.73
2023-05-04T08:11:20.114Z,56.13
2023-05-04T08:12:10.372Z,55.02
2023-05-04T08:13:09.446Z,54.31
2023-05-04T08:14:09.383Z,55.25
2023-05-04T08:15:09.341Z,56.21
2023-05-04T08:16:09.415Z,57.35
2023-05-04T08:17:09.329Z,56.74
2023-05-04T08:18:09.330Z,57.38
2023-05-04T08:19:09.321Z,57.21
2023-05-04T08:20:09.311Z,57.10
2023-05-04T08:21:09.316Z,57.31
2023-05-04T08:22:09.341Z,57.92
2023-05-04T08:23:09.293Z,58.09
2023-05-04T08:24:09.305Z,57.46
2023-05-04T08:25:09.285Z,57.66
2023-05-04T08:26:09.277Z,56.62
2023-05-04T08:27:09.871Z,55.27
2023-05-04T08:28:09.499Z,55.65
2023-05-04T08:29:09.254Z,56.13
2023-05-04T08:30:09.231Z,54.69
2023-05-04T08:31:09.262Z,54.31
2023-05-04T08:32:09.263Z,55.32
2023-05-04T08:33:09.297Z,53.78
2023-05-04T08:34:09.266Z,55.10
2023-05-04T08:35:09.182Z,54.18
2023-05-04T08:36:09.208Z,54.28
2023-05-04T08:37:09.189Z,56.18
2023-05-04T08:38:09.205Z,54.46
2023-05-04T08:39:09.181Z,53.83
2023-05-04T08:40:09.233Z,52.21
2023-05-04T08:41:09.190Z,53.14
2023-05-04T08:42:09.137Z,53.12
2023-05-04T08:43:09.142Z,52.19
2023-05-04T08:44:09.136Z,53.05
2023-05-04T08:45:09.150Z,51.35
2023-05-04T08:46:09.197Z,53.85
2023-05-04T08:47:09.103Z,54.11
2023-05-04T08:48:09.169Z,54.89
2023-05-04T08:49:09.086Z,54.03
2023-05-04T08:50:09.106Z,52.51
2023-05-04T08:51:09.092Z,52.46
2023-05-04T08:52:09.175Z,52.26
2023-05-04T08:53:09.058Z,52.19
2023-05-04T08:54:09.054Z,52.54
2023-05-04T08:55:09.065Z,54.38
2023-05-04T08:56:09.103Z,53.05
2023-05-04T08:57:09.156Z,52.31
2023-05-04T08:58:09.102Z,52.08
2023-05-04T08:59:09.015Z,51.76
2023-05-04T09:00:09.016Z,52.01
2023-05-04T09:01:09.084Z,51.45
2023-05-04T09:02:09.022Z,52.51
2023-05-04T09:03:09.042Z,53.75
2023-05-04T09:04:09.050Z,53.14
2023-05-04T09:05:08.993Z,53.85
2023-05-04T09:06:08.984Z,52.84
2023-05-04T09:07:08.994Z,54.33
2023-05-04T09:08:08.956Z,52.48
2023-05-04T09:09:08.951Z,52.87
2023-05-04T09:10:08.973Z,53.02
2023-05-04T09:11:08.943Z,52.69
2023-05-04T09:12:08.936Z,49.94
2023-05-04T09:13:08.979Z,50.24
2023-05-04T09:14:08.927Z,49.84
2023-05-04T09:15:08.933Z,50.39
2023-05-04T09:16:08.946Z,52.21
2023-05-04T09:17:08.987Z,50.16
2023-05-04T09:18:08.933Z,49.89
2023-05-04T09:19:08.875Z,51.66
2023-05-04T09:20:08.854Z,50.16
2023-05-04T09:21:08.852Z,51.50
2023-05-04T09:22:08.892Z,50.98
2023-05-04T09:23:08.869Z,51.03
2023-05-04T09:24:08.825Z,53.07
2023-05-04T09:25:08.812Z,53.07
2023-05-04T09:26:08.830Z,53.07
2023-05-04T09:27:08.826Z,50.52
2023-05-04T09:28:08.866Z,48.64
2023-05-04T09:29:08.793Z,48.74
2023-05-04T09:30:08.803Z,49.15
2023-05-04T09:31:08.865Z,49.29
2023-05-04T09:32:08.807Z,50.04
2023-05-04T09:33:08.754Z,52.24
2023-05-04T09:34:09.241Z,49.87
2023-05-04T09:35:10.731Z,50.60
2023-05-04T09:36:08.740Z,49.50
2023-05-04T09:37:08.751Z,48.65
2023-05-04T09:38:08.743Z,47.51
2023-05-04T09:39:11.125Z,48.14
2023-05-04T09:40:08.806Z,48.61
2023-05-04T09:41:08.710Z,47.91
2023-05-04T09:42:08.715Z,48.08
2023-05-04T09:43:08.734Z,49.72
2023-05-04T09:44:08.714Z,49.39
2023-05-04T09:45:08.834Z,48.14
2023-05-04T09:46:08.731Z,47.79
2023-05-04T09:47:08.670Z,47.94
2023-05-04T09:48:08.661Z,47.30
2023-05-04T09:49:08.652Z,45.84
2023-05-04T09:50:08.651Z,44.78
2023-05-04T09:51:08.627Z,43.70
2023-05-04T09:52:08.702Z,44.12
2023-05-04T09:53:08.608Z,45.18
2023-05-04T09:54:08.592Z,46.81
2023-05-04T09:55:08.598Z,47.56
2023-05-04T09:56:08.574Z,48.11
2023-05-04T09:57:08.592Z,48.90
2023-05-04T09:58:08.617Z,47.72
2023-05-04T09:59:08.602Z,47.00
2023-05-04T10:00:08.568Z,47.12
2023-05-04T10:01:08.562Z,48.08
2023-05-04T10:02:18.655Z,46.83
2023-05-04T10:03:09.621Z,46.18
2023-05-04T10:04:08.526Z,44.96
2023-05-04T10:05:08.623Z,45.16
2023-05-04T10:06:08.523Z,45.01
2023-05-04T10:07:08.520Z,45.50
2023-05-04T10:08:08.492Z,42.57
2023-05-04T10:09:08.537Z,43.09
2023-05-04T10:10:08.495Z,43.71
2023-05-04T10:11:08.465Z,42.85
2023-05-04T10:12:08.506Z,45.06
2023-05-04T10:13:08.707Z,43.46
2023-05-04T10:14:08.478Z,45.28
2023-05-04T10:15:08.500Z,46.54
2023-05-04T10:16:08.489Z,43.49
2023-05-04T10:17:08.439Z,42.83
2023-05-04T10:18:08.431Z,42.41
2023-05-04T10:19:08.397Z,41.67
2023-05-04T10:20:08.400Z,45.18
2023-05-04T10:21:09.472Z,45.47
2023-05-04T10:22:08.397Z,46.27
2023-05-04T10:23:08.380Z,48.05
2023-05-04T10:24:08.377Z,44.58
2023-05-04T10:25:08.401Z,44.12
2023-05-04T10:26:08.359Z,44.45
2023-05-04T10:27:08.430Z,42.59
2023-05-04T10:28:08.337Z,41.97
2023-05-04T10:29:08.376Z,39.76
2023-05-04T10:30:08.326Z,41.63
2023-05-04T10:31:08.363Z,41.03
2023-05-04T10:32:08.357Z,41.75
2023-05-04T10:33:08.388Z,42.33
2023-05-04T10:34:08.306Z,42.89
2023-05-04T10:35:08.400Z,40.74
2023-05-04T10:36:08.292Z,40.74
2023-05-04T10:37:08.312Z,42.37
2023-05-04T10:38:08.285Z,42.15
2023-05-04T10:39:08.530Z,40.46
2023-05-04T10:40:08.281Z,38.54
2023-05-04T10:41:08.252Z,39.32
2023-05-04T10:42:08.240Z,39.98
2023-05-04T10:43:08.291Z,40.80
2023-05-04T10:44:08.239Z,38.40
2023-05-04T10:45:08.300Z,41.39
2023-05-04T10:46:08.258Z,40.72
2023-05-04T10:47:08.275Z,41.60
2023-05-04T10:48:08.276Z,42.60
2023-05-04T10:49:08.192Z,42.82
2023-05-04T10:50:08.209Z,43.19
2023-05-04T10:51:08.239Z,40.95
2023-05-04T10:52:08.180Z,40.89
2023-05-04T10:53:08.171Z,41.39
2023-05-04T10:54:08.151Z,41.05
2023-05-04T10:55:08.170Z,42.07
2023-05-04T10:56:08.141Z,41.80
2023-05-04T10:57:08.192Z,41.39
2023-05-04T10:58:08.131Z,39.78
2023-05-04T10:59:08.202Z,38.89
2023-05-04T11:00:08.105Z,41.67
2023-05-04T11:01:08.153Z,39.44
2023-05-04T11:02:08.223Z,38.79
2023-05-04T11:03:08.220Z,38.81
2023-05-04T11:04:08.093Z,37.13
2023-05-04T11:05:08.498Z,37.25
2023-05-04T11:06:08.053Z,37.40
2023-05-04T11:07:08.174Z,39.12
2023-05-04T11:08:08.081Z,38.40
2023-05-04T11:09:08.132Z,38.96
2023-05-04T11:10:08.056Z,37.92
2023-05-04T11:11:08.028Z,38.61
2023-05-04T11:12:08.047Z,37.12
2023-05-04T11:13:08.160Z,36.19
2023-05-04T11:14:08.006Z,36.49
2023-05-04T11:15:08.292Z,36.38
2023-05-04T11:16:08.108Z,36.70
2023-05-04T11:17:26.114Z,38.29
2023-05-04T11:18:09.065Z,35.71
2023-05-04T11:19:09.089Z,36.98
2023-05-04T11:20:08.023Z,35.69
2023-05-04T11:21:08.068Z,38.65
2023-05-04T11:22:08.061Z,38.20
2023-05-04T11:23:07.972Z,37.49
2023-05-04T11:24:08.046Z,35.89
2023-05-04T11:25:07.916Z,37.48
2023-05-04T11:26:08.029Z,36.68
2023-05-04T11:27:08.047Z,35.91
2023-05-04T11:28:07.941Z,39.72
2023-05-04T11:29:07.947Z,37.51
2023-05-04T11:30:07.939Z,36.40
2023-05-04T11:31:07.905Z,36.80
2023-05-04T11:32:07.926Z,37.40
2023-05-04T11:33:08.026Z,37.62
2023-05-04T11:34:07.859Z,38.67
2023-05-04T11:35:08.107Z,37.77
2023-05-04T11:36:07.921Z,37.48
2023-05-04T11:37:07.925Z,36.43
2023-05-04T11:38:07.912Z,36.25
2023-05-04T11:39:08.026Z,36.57
2023-05-04T11:40:07.816Z,36.63
2023-05-04T11:41:07.837Z,35.82
2023-05-04T11:42:07.835Z,33.80
2023-05-04T11:43:07.824Z,34.55
2023-05-04T11:44:10.931Z,34.12
2023-05-04T11:45:07.893Z,33.87
2023-05-04T11:46:07.982Z,34.64
2023-05-04T11:47:07.784Z,33.22
2023-05-04T11:48:07.845Z,33.54
2023-05-04T11:49:07.874Z,34.17
2023-05-04T11:50:07.780Z,32.76
2023-05-04T11:51:07.803Z,33.24
2023-05-04T11:52:07.806Z,33.11
2023-05-04T11:53:07.765Z,32.53
2023-05-04T11:54:07.739Z,32.20
2023-05-04T11:55:08.022Z,31.52
2023-05-04T11:56:07.773Z,32.71
2023-05-04T11:57:07.801Z,32.91
2023-05-04T11:58:07.743Z,33.22
2023-05-04T11:59:07.713Z,32.87
2023-05-04T12:00:07.706Z,34.10
2023-05-04T12:01:07.700Z,37.46
2023-05-04T12:02:07.688Z,36.25
2023-05-04T12:03:07.846Z,33.75
2023-05-04T12:04:07.800Z,32.67
2023-05-04T12:05:07.841Z,34.43
2023-05-04T12:06:07.666Z,35.38
2023-05-04T12:07:07.689Z,35.11
2023-05-04T12:08:07.686Z,34.25
2023-05-04T12:09:07.792Z,37.77
2023-05-04T12:10:07.668Z,37.82
2023-05-04T12:11:07.661Z,35.38
2023-05-04T12:12:07.640Z,35.52
2023-05-04T12:13:07.678Z,35.97
2023-05-04T12:14:07.584Z,35.13
2023-05-04T12:15:07.905Z,33.52
2023-05-04T12:16:07.695Z,35.07
2023-05-04T12:17:07.597Z,32.82
2023-05-04T12:18:07.684Z,34.71
2023-05-04T12:19:07.638Z,32.71
2023-05-04T12:20:07.546Z,32.09
2023-05-04T12:21:07.693Z,33.14
2023-05-04T12:22:07.541Z,32.76
2023-05-04T12:23:07.512Z,32.07
2023-05-04T12:24:07.510Z,31.84
2023-05-04T12:25:07.799Z,32.80
2023-05-04T12:26:07.479Z,31.94
2023-05-04T12:27:07.591Z,33.40
2023-05-04T12:28:07.488Z,34.00
2023-05-04T12:29:07.475Z,36.58
2023-05-04T12:30:07.456Z,36.78
2023-05-04T12:31:07.473Z,34.73
2023-05-04T12:32:07.612Z,32.12
2023-05-04T12:33:07.626Z,33.27
2023-05-04T12:34:07.481Z,34.53
2023-05-04T12:35:07.631Z,33.19
2023-05-04T12:36:07.427Z,33.50
2023-05-04T12:37:07.398Z,32.14
2023-05-04T12:38:07.419Z,32.61
2023-05-04T12:39:07.462Z,32.00
2023-05-04T12:40:17.321Z,32.60
2023-05-04T12:41:08.379Z,31.79
2023-05-04T12:42:07.440Z,31.16
2023-05-04T12:43:07.423Z,31.20
2023-05-04T12:44:07.440Z,31.79
2023-05-04T12:45:07.657Z,33.28
2023-05-04T12:46:07.383Z,32.14
2023-05-04T12:47:07.339Z,30.70
2023-05-04T12:48:07.402Z,31.71
2023-05-04T12:49:07.354Z,35.47
2023-05-04T12:50:07.292Z,31.31
2023-05-04T12:51:07.359Z,30.71
2023-05-04T12:52:07.311Z,32.40